sensor_id;sensor_type;location;lat;lon;timestamp;temperature;humidity
2024;DHT22;1016;48.770;9.154;2023-11-21T00:00:15;12.00;99.90
2024;DHT22;1016;48.770;9.154;2023-11-21T00:02:41;12.00;99.90
2024;DHT22;1016;48.770;9.154;2023-11-21T00:05:10;12.00;99.90
2024;DHT22;1016;48.770;9.154;2023-11-21T00:07:37;12.20;99.90
2024;DHT22;1016;48.770;9.154;2023-11-21T00:10:03;12.00;99.90
2024;DHT22;1016;48.770;9.154;2023-11-21T00:12:30;12.00;99.90
2024;DHT22;1016;48.770;9.154;2023-11-21T00:14:56;12.00;99.90
2024;DHT22;1016;48.770;9.154;2023-11-21T00:17:23;12.00;99.90
2024;DHT22;1016;48.770;9.154;2023-11-21T00:19:48;12.00;99.90
2024;DHT22;1016;48.770;9.154;2023-11-21T00:22:16;12.00;99.90
2024;DHT22;1016;48.770;9.154;2023-11-21T00:24:42;12.00;99.90
2024;DHT22;1016;48.770;9.154;2023-11-21T00:27:08;12.10;99.90
2024;DHT22;1016;48.770;9.154;2023-11-21T00:29:33;11.90;99.90
2024;DHT22;1016;48.770;9.154;2023-11-21T00:31:59;11.90;99.90
2024;DHT22;1016;48.770;9.154;2023-11-21T00:34:25;12.00;99.90
2024;DHT22;1016;48.770;9.154;2023-11-21T00:36:51;11.90;99.90
2024;DHT22;1016;48.770;9.154;2023-11-21T00:39:17;11.90;99.90
2024;DHT22;1016;48.770;9.154;2023-11-21T00:41:44;11.90;99.90
2024;DHT22;1016;48.770;9.154;2023-11-21T00:44:13;12.00;99.90
2024;DHT22;1016;48.770;9.154;2023-11-21T00:46:39;11.90;99.90
2024;DHT22;1016;48.770;9.154;2023-11-21T00:49:04;11.90;99.90
2024;DHT22;1016;48.770;9.154;2023-11-21T00:51:30;11.90;99.90
2024;DHT22;1016;48.770;9.154;2023-11-21T00:54:03;11.90;99.90
2024;DHT22;1016;48.770;9.154;2023-11-21T00:56:28;11.90;99.90
2024;DHT22;1016;48.770;9.154;2023-11-21T00:58:54;11.90;99.90
2024;DHT22;1016;48.770;9.154;2023-11-21T01:01:20;11.90;99.90
2024;DHT22;1016;48.770;9.154;2023-11-21T01:03:47;11.90;99.90
2024;DHT22;1016;48.770;9.154;2023-11-21T01:06:13;12.00;99.90
2024;DHT22;1016;48.770;9.154;2023-11-21T01:08:38;12.00;99.90
2024;DHT22;1016;48.770;9.154;2023-11-21T01:11:04;12.00;99.90
2024;DHT22;1016;48.770;9.154;2023-11-21T01:13:33;11.90;99.90
2024;DHT22;1016;48.770;9.154;2023-11-21T01:15:58;11.90;99.90
2024;DHT22;1016;48.770;9.154;2023-11-21T01:18:25;11.90;99.90
2024;DHT22;1016;48.770;9.154;2023-11-21T01:20:51;11.90;99.90
2024;DHT22;1016;48.770;9.154;2023-11-21T01:23:18;11.90;99.90
2024;DHT22;1016;48.770;9.154;2023-11-21T01:25:44;11.90;99.90
2024;DHT22;1016;48.770;9.154;2023-11-21T01:28:10;12.10;99.90
2024;DHT22;1016;48.770;9.154;2023-11-21T01:30:36;11.90;99.90
2024;DHT22;1016;48.770;9.154;2023-11-21T01:33:01;11.90;99.90
2024;DHT22;1016;48.770;9.154;2023-11-21T01:35:27;12.10;99.90
2024;DHT22;1016;48.770;9.154;2023-11-21T01:37:53;11.90;99.90
2024;DHT22;1016;48.770;9.154;2023-11-21T01:40:20;11.90;99.90
2024;DHT22;1016;48.770;9.154;2023-11-21T01:42:46;11.90;99.90
2024;DHT22;1016;48.770;9.154;2023-11-21T01:45:13;11.90;99.90
2024;DHT22;1016;48.770;9.154;2023-11-21T01:47:41;12.00;99.90
2024;DHT22;1016;48.770;9.154;2023-11-21T01:50:08;11.90;99.90
2024;DHT22;1016;48.770;9.154;2023-11-21T01:52:38;11.90;99.90
2024;DHT22;1016;48.770;9.154;2023-11-21T01:55:06;11.90;99.90
2024;DHT22;1016;48.770;9.154;2023-11-21T01:57:33;11.90;99.90
2024;DHT22;1016;48.770;9.154;2023-11-21T02:00:02;11.90;99.90
2024;DHT22;1016;48.770;9.154;2023-11-21T02:02:43;11.90;99.90
2024;DHT22;1016;48.770;9.154;2023-11-21T02:05:16;11.90;99.90
2024;DHT22;1016;48.770;9.154;2023-11-21T02:07:45;11.90;99.90
2024;DHT22;1016;48.770;9.154;2023-11-21T02:10:14;12.10;99.90
2024;DHT22;1016;48.770;9.154;2023-11-21T02:12:43;11.90;99.90
2024;DHT22;1016;48.770;9.154;2023-11-21T02:15:13;11.90;99.90
2024;DHT22;1016;48.770;9.154;2023-11-21T02:17:46;11.90;99.90
2024;DHT22;1016;48.770;9.154;2023-11-21T02:20:21;12.10;99.90
2024;DHT22;1016;48.770;9.154;2023-11-21T02:22:56;11.90;99.90
2024;DHT22;1016;48.770;9.154;2023-11-21T02:25:30;11.90;99.90
2024;DHT22;1016;48.770;9.154;2023-11-21T02:27:57;11.90;99.90
2024;DHT22;1016;48.770;9.154;2023-11-21T02:30:37;11.90;99.90
2024;DHT22;1016;48.770;9.154;2023-11-21T02:33:02;11.90;99.90
2024;DHT22;1016;48.770;9.154;2023-11-21T02:35:28;11.90;99.90
2024;DHT22;1016;48.770;9.154;2023-11-21T02:37:54;11.90;99.90
2024;DHT22;1016;48.770;9.154;2023-11-21T02:40:20;11.90;99.90
2024;DHT22;1016;48.770;9.154;2023-11-21T02:42:46;11.90;99.90
2024;DHT22;1016;48.770;9.154;2023-11-21T02:45:19;11.90;99.90
2024;DHT22;1016;48.770;9.154;2023-11-21T02:47:46;11.90;99.90
2024;DHT22;1016;48.770;9.154;2023-11-21T02:50:12;11.90;99.90
2024;DHT22;1016;48.770;9.154;2023-11-21T02:52:38;11.90;99.90
2024;DHT22;1016;48.770;9.154;2023-11-21T02:55:05;11.90;99.90
2024;DHT22;1016;48.770;9.154;2023-11-21T02:57:32;11.90;99.90
2024;DHT22;1016;48.770;9.154;2023-11-21T02:59:59;11.90;99.90
2024;DHT22;1016;48.770;9.154;2023-11-21T03:02:28;11.90;99.90
2024;DHT22;1016;48.770;9.154;2023-11-21T03:04:53;11.90;99.90
2024;DHT22;1016;48.770;9.154;2023-11-21T03:07:21;11.90;99.90
2024;DHT22;1016;48.770;9.154;2023-11-21T03:09:49;11.90;99.90
2024;DHT22;1016;48.770;9.154;2023-11-21T03:12:15;11.90;99.90
2024;DHT22;1016;48.770;9.154;2023-11-21T03:14:41;11.90;99.90
2024;DHT22;1016;48.770;9.154;2023-11-21T03:17:07;11.90;99.90
2024;DHT22;1016;48.770;9.154;2023-11-21T03:19:32;11.90;99.90
2024;DHT22;1016;48.770;9.154;2023-11-21T03:21:58;11.90;99.90
2024;DHT22;1016;48.770;9.154;2023-11-21T03:24:24;11.90;99.90
2024;DHT22;1016;48.770;9.154;2023-11-21T03:26:50;11.90;99.90
2024;DHT22;1016;48.770;9.154;2023-11-21T03:29:16;11.90;99.90
2024;DHT22;1016;48.770;9.154;2023-11-21T03:31:42;11.90;99.90
2024;DHT22;1016;48.770;9.154;2023-11-21T03:34:15;11.90;99.90
2024;DHT22;1016;48.770;9.154;2023-11-21T03:36:40;11.90;99.90
2024;DHT22;1016;48.770;9.154;2023-11-21T03:39:06;11.90;99.90
2024;DHT22;1016;48.770;9.154;2023-11-21T03:41:31;12.00;99.90
2024;DHT22;1016;48.770;9.154;2023-11-21T03:43:57;11.90;99.90
2024;DHT22;1016;48.770;9.154;2023-11-21T03:46:26;11.90;99.90
2024;DHT22;1016;48.770;9.154;2023-11-21T03:48:51;11.90;99.90
2024;DHT22;1016;48.770;9.154;2023-11-21T03:51:21;11.80;99.90
2024;DHT22;1016;48.770;9.154;2023-11-21T03:53:49;12.00;99.90
2024;DHT22;1016;48.770;9.154;2023-11-21T03:56:18;11.80;99.90
2024;DHT22;1016;48.770;9.154;2023-11-21T03:58:43;12.00;99.90
2024;DHT22;1016;48.770;9.154;2023-11-21T04:01:09;11.80;99.90
2024;DHT22;1016;48.770;9.154;2023-11-21T04:03:34;11.90;99.90
2024;DHT22;1016;48.770;9.154;2023-11-21T04:06:03;11.80;99.90
2024;DHT22;1016;48.770;9.154;2023-11-21T04:08:28;11.80;99.90
2024;DHT22;1016;48.770;9.154;2023-11-21T04:10:54;11.70;99.90
2024;DHT22;1016;48.770;9.154;2023-11-21T04:13:20;11.80;99.90
2024;DHT22;1016;48.770;9.154;2023-11-21T04:15:47;11.80;99.90
2024;DHT22;1016;48.770;9.154;2023-11-21T04:18:13;11.80;99.90
2024;DHT22;1016;48.770;9.154;2023-11-21T04:20:39;11.80;99.90
2024;DHT22;1016;48.770;9.154;2023-11-21T04:23:04;11.80;99.90
2024;DHT22;1016;48.770;9.154;2023-11-21T04:25:31;11.60;99.90
2024;DHT22;1016;48.770;9.154;2023-11-21T04:27:56;11.80;99.90
2024;DHT22;1016;48.770;9.154;2023-11-21T04:30:22;11.90;99.90
2024;DHT22;1016;48.770;9.154;2023-11-21T04:32:47;11.70;99.90
2024;DHT22;1016;48.770;9.154;2023-11-21T04:35:13;11.80;99.90
2024;DHT22;1016;48.770;9.154;2023-11-21T04:37:38;11.80;99.90
2024;DHT22;1016;48.770;9.154;2023-11-21T04:40:05;11.90;99.90
2024;DHT22;1016;48.770;9.154;2023-11-21T04:42:34;11.80;99.90
2024;DHT22;1016;48.770;9.154;2023-11-21T04:45:00;11.90;99.90
2024;DHT22;1016;48.770;9.154;2023-11-21T04:47:26;11.80;99.90
2024;DHT22;1016;48.770;9.154;2023-11-21T04:49:52;11.80;99.90
2024;DHT22;1016;48.770;9.154;2023-11-21T04:52:19;11.80;99.90
2024;DHT22;1016;48.770;9.154;2023-11-21T04:54:45;11.80;99.90
2024;DHT22;1016;48.770;9.154;2023-11-21T04:57:11;11.80;99.90
2024;DHT22;1016;48.770;9.154;2023-11-21T04:59:37;11.80;99.90
2024;DHT22;1016;48.770;9.154;2023-11-21T05:02:03;12.00;99.90
2024;DHT22;1016;48.770;9.154;2023-11-21T05:04:28;11.80;99.90
2024;DHT22;1016;48.770;9.154;2023-11-21T05:06:54;11.80;99.90
2024;DHT22;1016;48.770;9.154;2023-11-21T05:09:19;11.80;99.90
2024;DHT22;1016;48.770;9.154;2023-11-21T05:11:47;11.90;99.90
2024;DHT22;1016;48.770;9.154;2023-11-21T05:14:13;12.00;99.90
2024;DHT22;1016;48.770;9.154;2023-11-21T05:16:46;12.00;99.90
2024;DHT22;1016;48.770;9.154;2023-11-21T05:19:12;12.00;99.90
2024;DHT22;1016;48.770;9.154;2023-11-21T05:21:40;11.80;99.90
2024;DHT22;1016;48.770;9.154;2023-11-21T05:24:06;12.00;99.90
2024;DHT22;1016;48.770;9.154;2023-11-21T05:26:32;11.90;99.90
2024;DHT22;1016;48.770;9.154;2023-11-21T05:28:58;11.90;99.90
2024;DHT22;1016;48.770;9.154;2023-11-21T05:31:23;11.80;99.90
2024;DHT22;1016;48.770;9.154;2023-11-21T05:33:49;12.00;99.90
2024;DHT22;1016;48.770;9.154;2023-11-21T05:36:14;11.90;99.90
2024;DHT22;1016;48.770;9.154;2023-11-21T05:38:40;11.90;99.90
2024;DHT22;1016;48.770;9.154;2023-11-21T05:41:06;12.00;99.90
2024;DHT22;1016;48.770;9.154;2023-11-21T05:43:33;11.90;99.90
2024;DHT22;1016;48.770;9.154;2023-11-21T05:46:00;11.90;99.90
2024;DHT22;1016;48.770;9.154;2023-11-21T05:48:26;11.90;99.90
2024;DHT22;1016;48.770;9.154;2023-11-21T05:50:52;11.90;99.90
2024;DHT22;1016;48.770;9.154;2023-11-21T05:53:18;12.00;99.90
2024;DHT22;1016;48.770;9.154;2023-11-21T05:55:44;11.90;99.90
2024;DHT22;1016;48.770;9.154;2023-11-21T05:58:09;11.80;99.90
2024;DHT22;1016;48.770;9.154;2023-11-21T06:00:35;11.80;99.90
2024;DHT22;1016;48.770;9.154;2023-11-21T06:03:02;11.90;99.90
2024;DHT22;1016;48.770;9.154;2023-11-21T06:05:28;12.00;99.90
2024;DHT22;1016;48.770;9.154;2023-11-21T06:07:54;12.00;99.90
2024;DHT22;1016;48.770;9.154;2023-11-21T06:10:24;12.00;99.90
2024;DHT22;1016;48.770;9.154;2023-11-21T06:12:54;12.10;99.90
2024;DHT22;1016;48.770;9.154;2023-11-21T06:15:19;12.10;99.90
2024;DHT22;1016;48.770;9.154;2023-11-21T06:17:47;12.00;99.90
2024;DHT22;1016;48.770;9.154;2023-11-21T06:20:17;11.90;99.90
2024;DHT22;1016;48.770;9.154;2023-11-21T06:22:47;12.00;99.90
2024;DHT22;1016;48.770;9.154;2023-11-21T06:25:13;11.90;99.90
2024;DHT22;1016;48.770;9.154;2023-11-21T06:27:41;12.00;99.90
2024;DHT22;1016;48.770;9.154;2023-11-21T06:30:15;12.10;99.90
2024;DHT22;1016;48.770;9.154;2023-11-21T06:32:41;12.00;99.90
2024;DHT22;1016;48.770;9.154;2023-11-21T06:35:08;11.90;99.90
2024;DHT22;1016;48.770;9.154;2023-11-21T06:37:39;11.90;99.90
2024;DHT22;1016;48.770;9.154;2023-11-21T06:40:05;11.90;99.90
2024;DHT22;1016;48.770;9.154;2023-11-21T06:42:31;11.90;99.90
2024;DHT22;1016;48.770;9.154;2023-11-21T06:44:58;11.90;99.90
2024;DHT22;1016;48.770;9.154;2023-11-21T06:47:29;12.00;99.90
2024;DHT22;1016;48.770;9.154;2023-11-21T06:49:56;12.00;99.90
2024;DHT22;1016;48.770;9.154;2023-11-21T06:52:21;12.20;99.90
2024;DHT22;1016;48.770;9.154;2023-11-21T06:54:48;12.20;99.90
2024;DHT22;1016;48.770;9.154;2023-11-21T06:57:16;12.00;99.90
2024;DHT22;1016;48.770;9.154;2023-11-21T06:59:45;12.20;99.90
2024;DHT22;1016;48.770;9.154;2023-11-21T07:02:11;12.10;99.90
2024;DHT22;1016;48.770;9.154;2023-11-21T07:04:37;12.10;99.90
2024;DHT22;1016;48.770;9.154;2023-11-21T07:07:03;12.10;99.90
2024;DHT22;1016;48.770;9.154;2023-11-21T07:09:29;12.00;99.90
2024;DHT22;1016;48.770;9.154;2023-11-21T07:11:55;11.90;99.90
2024;DHT22;1016;48.770;9.154;2023-11-21T07:14:21;12.00;99.90
2024;DHT22;1016;48.770;9.154;2023-11-21T07:16:47;11.90;99.90
2024;DHT22;1016;48.770;9.154;2023-11-21T07:19:13;12.10;99.90
2024;DHT22;1016;48.770;9.154;2023-11-21T07:21:39;11.90;99.90
2024;DHT22;1016;48.770;9.154;2023-11-21T07:24:06;11.80;99.90
2024;DHT22;1016;48.770;9.154;2023-11-21T07:26:33;11.90;99.90
2024;DHT22;1016;48.770;9.154;2023-11-21T07:28:59;11.90;99.90
2024;DHT22;1016;48.770;9.154;2023-11-21T07:31:25;12.00;99.90
2024;DHT22;1016;48.770;9.154;2023-11-21T07:33:51;11.80;99.90
2024;DHT22;1016;48.770;9.154;2023-11-21T07:36:19;11.80;99.90
2024;DHT22;1016;48.770;9.154;2023-11-21T07:38:46;11.80;99.90
2024;DHT22;1016;48.770;9.154;2023-11-21T07:41:12;11.80;99.90
2024;DHT22;1016;48.770;9.154;2023-11-21T07:43:41;11.80;99.90
2024;DHT22;1016;48.770;9.154;2023-11-21T07:46:06;11.80;99.90
2024;DHT22;1016;48.770;9.154;2023-11-21T07:48:34;11.70;99.90
2024;DHT22;1016;48.770;9.154;2023-11-21T07:51:02;11.80;99.90
2024;DHT22;1016;48.770;9.154;2023-11-21T07:53:32;11.90;99.90
2024;DHT22;1016;48.770;9.154;2023-11-21T07:56:08;11.90;99.90
2024;DHT22;1016;48.770;9.154;2023-11-21T07:58:34;11.90;99.90
2024;DHT22;1016;48.770;9.154;2023-11-21T08:01:01;11.90;99.90
2024;DHT22;1016;48.770;9.154;2023-11-21T08:03:27;11.90;99.90
2024;DHT22;1016;48.770;9.154;2023-11-21T08:05:54;11.90;99.90
2024;DHT22;1016;48.770;9.154;2023-11-21T08:08:20;11.90;99.90
2024;DHT22;1016;48.770;9.154;2023-11-21T08:10:46;11.80;99.90
2024;DHT22;1016;48.770;9.154;2023-11-21T08:13:14;11.80;99.90
2024;DHT22;1016;48.770;9.154;2023-11-21T08:15:42;11.80;99.90
2024;DHT22;1016;48.770;9.154;2023-11-21T08:18:11;11.80;99.90
2024;DHT22;1016;48.770;9.154;2023-11-21T08:20:38;11.80;99.90
2024;DHT22;1016;48.770;9.154;2023-11-21T08:23:05;11.80;99.90
2024;DHT22;1016;48.770;9.154;2023-11-21T08:25:31;11.80;99.90
2024;DHT22;1016;48.770;9.154;2023-11-21T08:27:59;11.90;99.90
2024;DHT22;1016;48.770;9.154;2023-11-21T08:30:29;12.00;99.90
2024;DHT22;1016;48.770;9.154;2023-11-21T08:32:55;11.90;99.90
2024;DHT22;1016;48.770;9.154;2023-11-21T08:35:26;11.90;99.90
2024;DHT22;1016;48.770;9.154;2023-11-21T08:37:52;11.90;99.90
2024;DHT22;1016;48.770;9.154;2023-11-21T08:40:21;11.90;99.90
2024;DHT22;1016;48.770;9.154;2023-11-21T08:42:47;11.90;99.90
2024;DHT22;1016;48.770;9.154;2023-11-21T08:45:16;11.90;99.90
2024;DHT22;1016;48.770;9.154;2023-11-21T08:47:43;11.90;99.90
2024;DHT22;1016;48.770;9.154;2023-11-21T08:50:12;12.00;99.90
2024;DHT22;1016;48.770;9.154;2023-11-21T08:52:41;11.90;99.90
2024;DHT22;1016;48.770;9.154;2023-11-21T08:55:09;12.10;99.90
2024;DHT22;1016;48.770;9.154;2023-11-21T08:57:38;11.90;99.90
2024;DHT22;1016;48.770;9.154;2023-11-21T09:00:05;11.90;99.90
2024;DHT22;1016;48.770;9.154;2023-11-21T09:02:38;12.00;99.90
2024;DHT22;1016;48.770;9.154;2023-11-21T09:05:30;12.00;99.90
2024;DHT22;1016;48.770;9.154;2023-11-21T09:07:55;12.00;99.90
2024;DHT22;1016;48.770;9.154;2023-11-21T09:10:22;12.00;99.90
2024;DHT22;1016;48.770;9.154;2023-11-21T09:12:50;12.10;99.90
2024;DHT22;1016;48.770;9.154;2023-11-21T09:15:17;11.80;99.90
2024;DHT22;1016;48.770;9.154;2023-11-21T09:17:45;12.10;99.90
2024;DHT22;1016;48.770;9.154;2023-11-21T09:20:11;12.00;99.90
2024;DHT22;1016;48.770;9.154;2023-11-21T09:22:37;12.20;99.90
2024;DHT22;1016;48.770;9.154;2023-11-21T09:25:03;12.10;99.90
2024;DHT22;1016;48.770;9.154;2023-11-21T09:27:35;12.00;99.90
2024;DHT22;1016;48.770;9.154;2023-11-21T09:30:03;12.00;99.90
2024;DHT22;1016;48.770;9.154;2023-11-21T09:32:31;12.10;99.90
2024;DHT22;1016;48.770;9.154;2023-11-21T09:35:04;12.10;99.90
2024;DHT22;1016;48.770;9.154;2023-11-21T09:37:31;12.10;99.90
2024;DHT22;1016;48.770;9.154;2023-11-21T09:39:57;12.20;99.90
2024;DHT22;1016;48.770;9.154;2023-11-21T09:42:58;12.30;99.90
2024;DHT22;1016;48.770;9.154;2023-11-21T09:45:28;12.20;99.90
2024;DHT22;1016;48.770;9.154;2023-11-21T09:47:55;12.00;99.90
2024;DHT22;1016;48.770;9.154;2023-11-21T09:50:21;12.10;99.90
2024;DHT22;1016;48.770;9.154;2023-11-21T09:55:37;12.20;99.90
2024;DHT22;1016;48.770;9.154;2023-11-21T09:58:30;12.20;99.90
2024;DHT22;1016;48.770;9.154;2023-11-21T10:01:17;12.20;99.90
2024;DHT22;1016;48.770;9.154;2023-11-21T10:09:41;12.10;99.90
2024;DHT22;1016;48.770;9.154;2023-11-21T10:12:18;12.10;99.90
2024;DHT22;1016;48.770;9.154;2023-11-21T10:14:50;12.20;99.90
2024;DHT22;1016;48.770;9.154;2023-11-21T10:17:21;12.10;99.90
2024;DHT22;1016;48.770;9.154;2023-11-21T10:20:29;11.90;99.90
2024;DHT22;1016;48.770;9.154;2023-11-21T10:22:59;12.10;99.90
2024;DHT22;1016;48.770;9.154;2023-11-21T10:25:27;12.20;99.90
2024;DHT22;1016;48.770;9.154;2023-11-21T10:28:03;12.20;99.90
2024;DHT22;1016;48.770;9.154;2023-11-21T10:30:50;12.10;99.90
2024;DHT22;1016;48.770;9.154;2023-11-21T10:33:15;12.30;99.90
2024;DHT22;1016;48.770;9.154;2023-11-21T10:38:07;12.50;99.90
2024;DHT22;1016;48.770;9.154;2023-11-21T10:40:58;12.30;99.90
2024;DHT22;1016;48.770;9.154;2023-11-21T10:43:45;12.20;99.90
2024;DHT22;1016;48.770;9.154;2023-11-21T10:46:11;12.30;99.90
2024;DHT22;1016;48.770;9.154;2023-11-21T10:48:36;12.30;99.90
2024;DHT22;1016;48.770;9.154;2023-11-21T10:51:08;12.40;99.90
2024;DHT22;1016;48.770;9.154;2023-11-21T10:53:38;12.20;99.90
2024;DHT22;1016;48.770;9.154;2023-11-21T10:56:08;12.10;99.90
2024;DHT22;1016;48.770;9.154;2023-11-21T10:58:47;12.40;99.90
2024;DHT22;1016;48.770;9.154;2023-11-21T11:01:18;12.20;99.90
2024;DHT22;1016;48.770;9.154;2023-11-21T11:03:47;12.40;99.90
2024;DHT22;1016;48.770;9.154;2023-11-21T11:06:13;12.20;99.90
2024;DHT22;1016;48.770;9.154;2023-11-21T11:08:40;12.30;99.90
2024;DHT22;1016;48.770;9.154;2023-11-21T11:11:09;12.20;99.90
2024;DHT22;1016;48.770;9.154;2023-11-21T11:13:37;12.40;99.90
2024;DHT22;1016;48.770;9.154;2023-11-21T11:16:04;12.30;99.90
2024;DHT22;1016;48.770;9.154;2023-11-21T11:18:33;12.20;99.90
2024;DHT22;1016;48.770;9.154;2023-11-21T11:29:40;12.20;99.90
2024;DHT22;1016;48.770;9.154;2023-11-21T11:32:30;12.20;99.90
2024;DHT22;1016;48.770;9.154;2023-11-21T11:35:10;12.20;99.90
2024;DHT22;1016;48.770;9.154;2023-11-21T11:37:42;12.20;99.90
2024;DHT22;1016;48.770;9.154;2023-11-21T11:40:13;12.20;99.90
2024;DHT22;1016;48.770;9.154;2023-11-21T11:42:38;12.20;99.90
2024;DHT22;1016;48.770;9.154;2023-11-21T11:45:34;12.20;99.90
2024;DHT22;1016;48.770;9.154;2023-11-21T11:48:01;12.20;99.90
2024;DHT22;1016;48.770;9.154;2023-11-21T11:50:31;12.20;99.90
2024;DHT22;1016;48.770;9.154;2023-11-21T11:53:12;12.30;99.90
2024;DHT22;1016;48.770;9.154;2023-11-21T11:55:40;12.20;99.90
2024;DHT22;1016;48.770;9.154;2023-11-21T11:58:08;12.30;99.90
2024;DHT22;1016;48.770;9.154;2023-11-21T12:00:35;12.20;99.90
2024;DHT22;1016;48.770;9.154;2023-11-21T12:03:04;12.20;99.90
2024;DHT22;1016;48.770;9.154;2023-11-21T12:05:32;12.40;99.90
2024;DHT22;1016;48.770;9.154;2023-11-21T12:08:00;12.30;99.90
2024;DHT22;1016;48.770;9.154;2023-11-21T12:10:28;12.40;99.90
2024;DHT22;1016;48.770;9.154;2023-11-21T12:12:55;12.40;99.90
2024;DHT22;1016;48.770;9.154;2023-11-21T12:15:21;12.20;99.90
2024;DHT22;1016;48.770;9.154;2023-11-21T12:18:03;12.20;99.90
2024;DHT22;1016;48.770;9.154;2023-11-21T12:20:29;12.20;99.90
2024;DHT22;1016;48.770;9.154;2023-11-21T12:22:59;12.30;99.90
2024;DHT22;1016;48.770;9.154;2023-11-21T12:25:27;12.40;99.90
2024;DHT22;1016;48.770;9.154;2023-11-21T12:27:55;12.30;99.90
2024;DHT22;1016;48.770;9.154;2023-11-21T12:30:23;12.30;99.90
2024;DHT22;1016;48.770;9.154;2023-11-21T12:32:51;12.40;99.90
2024;DHT22;1016;48.770;9.154;2023-11-21T12:35:21;12.40;99.90
2024;DHT22;1016;48.770;9.154;2023-11-21T12:37:48;12.30;99.90
2024;DHT22;1016;48.770;9.154;2023-11-21T12:40:15;12.30;99.90
2024;DHT22;1016;48.770;9.154;2023-11-21T12:42:42;12.30;99.90
2024;DHT22;1016;48.770;9.154;2023-11-21T12:45:26;12.30;99.90
2024;DHT22;1016;48.770;9.154;2023-11-21T12:47:55;12.30;99.90
2024;DHT22;1016;48.770;9.154;2023-11-21T12:50:25;12.30;99.90
2024;DHT22;1016;48.770;9.154;2023-11-21T12:52:58;12.30;99.90
2024;DHT22;1016;48.770;9.154;2023-11-21T12:55:29;12.30;99.90
2024;DHT22;1016;48.770;9.154;2023-11-21T12:57:55;12.30;99.90
2024;DHT22;1016;48.770;9.154;2023-11-21T13:00:35;12.30;99.90
2024;DHT22;1016;48.770;9.154;2023-11-21T13:03:04;12.40;99.90
2024;DHT22;1016;48.770;9.154;2023-11-21T13:05:39;12.60;99.90
2024;DHT22;1016;48.770;9.154;2023-11-21T13:08:07;12.50;99.90
2024;DHT22;1016;48.770;9.154;2023-11-21T13:10:36;12.50;99.90
2024;DHT22;1016;48.770;9.154;2023-11-21T13:13:06;12.40;99.90
2024;DHT22;1016;48.770;9.154;2023-11-21T13:15:46;12.50;99.90
2024;DHT22;1016;48.770;9.154;2023-11-21T13:18:12;12.40;99.90
2024;DHT22;1016;48.770;9.154;2023-11-21T13:20:38;12.30;99.90
2024;DHT22;1016;48.770;9.154;2023-11-21T13:23:08;12.50;99.90
2024;DHT22;1016;48.770;9.154;2023-11-21T13:25:33;12.40;99.90
2024;DHT22;1016;48.770;9.154;2023-11-21T13:28:00;12.30;99.90
2024;DHT22;1016;48.770;9.154;2023-11-21T13:30:27;12.40;99.90
2024;DHT22;1016;48.770;9.154;2023-11-21T13:32:54;12.20;99.90
2024;DHT22;1016;48.770;9.154;2023-11-21T13:35:26;12.50;99.90
2024;DHT22;1016;48.770;9.154;2023-11-21T13:38:16;12.30;99.90
2024;DHT22;1016;48.770;9.154;2023-11-21T13:40:49;12.40;99.90
2024;DHT22;1016;48.770;9.154;2023-11-21T13:43:18;12.30;99.90
2024;DHT22;1016;48.770;9.154;2023-11-21T13:45:49;12.30;99.90
2024;DHT22;1016;48.770;9.154;2023-11-21T13:48:25;12.30;99.90
2024;DHT22;1016;48.770;9.154;2023-11-21T13:50:57;12.30;99.90
2024;DHT22;1016;48.770;9.154;2023-11-21T13:53:42;12.30;99.90
2024;DHT22;1016;48.770;9.154;2023-11-21T13:56:08;12.30;99.90
2024;DHT22;1016;48.770;9.154;2023-11-21T13:58:34;12.30;99.90
2024;DHT22;1016;48.770;9.154;2023-11-21T14:01:19;12.50;99.90
2024;DHT22;1016;48.770;9.154;2023-11-21T14:04:17;12.50;99.90
2024;DHT22;1016;48.770;9.154;2023-11-21T14:09:34;12.80;99.90
2024;DHT22;1016;48.770;9.154;2023-11-21T14:12:10;12.90;99.90
2024;DHT22;1016;48.770;9.154;2023-11-21T14:14:38;12.90;99.90
2024;DHT22;1016;48.770;9.154;2023-11-21T14:17:05;12.80;99.90
2024;DHT22;1016;48.770;9.154;2023-11-21T14:19:35;12.80;99.90
2024;DHT22;1016;48.770;9.154;2023-11-21T14:22:05;12.70;99.90
2024;DHT22;1016;48.770;9.154;2023-11-21T14:24:33;12.60;99.90
2024;DHT22;1016;48.770;9.154;2023-11-21T14:26:58;12.80;99.90
2024;DHT22;1016;48.770;9.154;2023-11-21T14:29:25;12.60;99.90
2024;DHT22;1016;48.770;9.154;2023-11-21T14:31:55;12.50;99.90
2024;DHT22;1016;48.770;9.154;2023-11-21T14:34:23;12.60;99.90
2024;DHT22;1016;48.770;9.154;2023-11-21T14:36:52;12.60;99.90
2024;DHT22;1016;48.770;9.154;2023-11-21T14:39:21;12.60;99.90
2024;DHT22;1016;48.770;9.154;2023-11-21T14:41:55;12.50;99.90
2024;DHT22;1016;48.770;9.154;2023-11-21T14:44:25;12.50;99.90
2024;DHT22;1016;48.770;9.154;2023-11-21T14:46:55;12.40;99.90
2024;DHT22;1016;48.770;9.154;2023-11-21T14:49:56;12.40;99.90
2024;DHT22;1016;48.770;9.154;2023-11-21T14:52:42;12.60;99.90
2024;DHT22;1016;48.770;9.154;2023-11-21T14:58:48;12.50;99.90
2024;DHT22;1016;48.770;9.154;2023-11-21T15:01:14;12.40;99.90
2024;DHT22;1016;48.770;9.154;2023-11-21T15:04:00;12.50;99.90
2024;DHT22;1016;48.770;9.154;2023-11-21T15:06:29;12.30;99.90
2024;DHT22;1016;48.770;9.154;2023-11-21T15:08:58;12.50;99.90
2024;DHT22;1016;48.770;9.154;2023-11-21T15:12:04;12.30;99.90
2024;DHT22;1016;48.770;9.154;2023-11-21T15:15:19;12.20;99.90
2024;DHT22;1016;48.770;9.154;2023-11-21T15:18:12;12.30;99.90
2024;DHT22;1016;48.770;9.154;2023-11-21T15:20:44;12.10;99.90
2024;DHT22;1016;48.770;9.154;2023-11-21T15:23:12;12.30;99.90
2024;DHT22;1016;48.770;9.154;2023-11-21T15:26:00;12.40;99.90
2024;DHT22;1016;48.770;9.154;2023-11-21T15:28:51;12.40;99.90
2024;DHT22;1016;48.770;9.154;2023-11-21T15:31:19;12.20;99.90
2024;DHT22;1016;48.770;9.154;2023-11-21T15:33:50;12.30;99.90
2024;DHT22;1016;48.770;9.154;2023-11-21T15:36:28;12.40;99.90
2024;DHT22;1016;48.770;9.154;2023-11-21T15:38:54;12.40;99.90
2024;DHT22;1016;48.770;9.154;2023-11-21T15:41:25;12.40;99.90
2024;DHT22;1016;48.770;9.154;2023-11-21T15:43:59;12.40;99.90
2024;DHT22;1016;48.770;9.154;2023-11-21T15:46:42;12.30;99.90
2024;DHT22;1016;48.770;9.154;2023-11-21T15:49:36;12.20;99.90
2024;DHT22;1016;48.770;9.154;2023-11-21T15:52:20;12.40;99.90
2024;DHT22;1016;48.770;9.154;2023-11-21T15:54:55;12.40;99.90
2024;DHT22;1016;48.770;9.154;2023-11-21T15:57:28;12.30;99.90
2024;DHT22;1016;48.770;9.154;2023-11-21T15:59:54;12.30;99.90
2024;DHT22;1016;48.770;9.154;2023-11-21T16:02:32;12.20;99.90
2024;DHT22;1016;48.770;9.154;2023-11-21T16:05:04;12.30;99.90
2024;DHT22;1016;48.770;9.154;2023-11-21T16:07:33;12.30;99.90
2024;DHT22;1016;48.770;9.154;2023-11-21T16:10:07;12.20;99.90
2024;DHT22;1016;48.770;9.154;2023-11-21T16:12:45;12.20;99.90
2024;DHT22;1016;48.770;9.154;2023-11-21T16:15:15;12.20;99.90
2024;DHT22;1016;48.770;9.154;2023-11-21T16:17:52;12.20;99.90
2024;DHT22;1016;48.770;9.154;2023-11-21T16:20:31;12.20;99.90
2024;DHT22;1016;48.770;9.154;2023-11-21T16:23:06;12.20;99.90
2024;DHT22;1016;48.770;9.154;2023-11-21T16:25:37;12.30;99.90
2024;DHT22;1016;48.770;9.154;2023-11-21T16:28:06;12.20;99.90
2024;DHT22;1016;48.770;9.154;2023-11-21T16:30:49;12.20;99.90
2024;DHT22;1016;48.770;9.154;2023-11-21T16:33:18;12.20;99.90
2024;DHT22;1016;48.770;9.154;2023-11-21T16:35:45;12.20;99.90
2024;DHT22;1016;48.770;9.154;2023-11-21T16:38:12;12.20;99.90
2024;DHT22;1016;48.770;9.154;2023-11-21T16:40:38;12.20;99.90
2024;DHT22;1016;48.770;9.154;2023-11-21T16:43:07;12.30;99.90